createdAt,value
2019-01-14T00:01:34.627Z,96330.94
2019-01-14T00:04:04.099Z,96330.94
2019-01-14T00:06:33.571Z,96336.17
2019-01-14T00:09:04.826Z,96337.63
2019-01-14T00:11:34.189Z,96332.78
2019-01-14T00:14:03.589Z,96347.11
2019-01-14T00:16:32.948Z,96344.44
2019-01-14T00:19:02.325Z,96339.32
2019-01-14T00:21:31.681Z,96341.75
2019-01-14T00:24:01.110Z,96342.19
2019-01-14T00:26:30.461Z,96348.56
2019-01-14T00:28:59.853Z,96343.21
2019-01-14T00:31:29.213Z,96351.36
2019-01-14T00:33:58.640Z,96357.18
2019-01-14T00:36:28.208Z,96362.97
2019-01-14T00:38:57.585Z,96370.68
2019-01-14T00:41:26.969Z,96359.27
2019-01-14T00:43:56.361Z,96371.42
2019-01-14T00:46:26.086Z,96371.90
2019-01-14T00:48:55.433Z,96376.34
2019-01-14T00:51:24.787Z,96383.23
2019-01-14T00:53:54.197Z,96383.23
2019-01-14T00:56:23.557Z,96381.42
2019-01-14T00:58:52.935Z,96381.42
2019-01-14T01:01:22.312Z,96382.25
2019-01-14T01:03:52.132Z,96381.30
2019-01-14T01:06:24.785Z,96385.23
2019-01-14T01:08:52.568Z,96389.53
2019-01-14T01:11:21.945Z,96393.97
2019-01-14T01:13:51.294Z,96397.94
2019-01-14T01:16:20.696Z,96415.33
2019-01-14T01:18:50.038Z,96409.38
2019-01-14T01:21:19.419Z,96406.38
2019-01-14T01:23:48.785Z,96406.97
2019-01-14T01:26:18.508Z,96415.57
2019-01-14T01:28:47.867Z,96421.64
2019-01-14T01:31:17.260Z,96429.30
2019-01-14T01:33:46.644Z,96430.41
2019-01-14T01:36:16.032Z,96430.03
2019-01-14T01:38:45.430Z,96442.83
2019-01-14T01:41:14.799Z,96436.47
2019-01-14T01:43:44.219Z,96454.84
2019-01-14T01:46:13.586Z,96461.65
2019-01-14T01:48:42.948Z,96456.81
2019-01-14T01:51:12.330Z,96467.86
2019-01-14T01:53:41.697Z,96470.41
2019-01-14T01:56:11.079Z,96471.16
2019-01-14T01:58:40.441Z,96464.27
2019-01-14T02:01:09.821Z,96474.55
2019-01-14T02:03:39.188Z,96479.66
2019-01-14T02:06:08.757Z,96484.53
2019-01-14T02:08:38.146Z,96490.36
2019-01-14T02:11:07.513Z,96494.48
2019-01-14T02:13:36.899Z,96494.69
2019-01-14T02:16:06.539Z,96483.54
2019-01-14T02:18:36.075Z,96495.20
2019-01-14T02:21:05.633Z,96497.09
2019-01-14T02:23:35.020Z,96504.22
2019-01-14T02:26:04.433Z,96503.36
2019-01-14T02:28:33.863Z,96503.23
2019-01-14T02:31:03.217Z,96498.08
2019-01-14T02:33:32.570Z,96498.63
2019-01-14T02:36:02.121Z,96499.59
2019-01-14T02:38:31.484Z,96497.02
2019-01-14T02:41:00.864Z,96493.73
2019-01-14T02:43:30.221Z,96498.84
2019-01-14T02:45:59.645Z,96501.52
2019-01-14T02:48:28.996Z,96506.56
2019-01-14T02:50:58.356Z,96520.75
2019-01-14T02:53:30.580Z,96514.30
2019-01-14T02:55:59.986Z,96531.38
2019-01-14T02:58:29.560Z,96532.96
2019-01-14T03:00:58.928Z,96538.76
2019-01-14T03:03:28.278Z,96545.31
2019-01-14T03:05:57.732Z,96546.30
2019-01-14T03:08:27.094Z,96562.56
2019-01-14T03:10:56.474Z,96557.35
2019-01-14T03:13:25.837Z,96560.00
2019-01-14T03:15:55.224Z,96566.55
2019-01-14T03:18:24.584Z,96568.44
2019-01-14T03:20:53.948Z,96583.69
2019-01-14T03:23:23.334Z,96570.59
2019-01-14T03:25:58.155Z,96578.34
2019-01-14T03:28:23.804Z,96592.66
2019-01-14T03:30:53.156Z,96584.43
2019-01-14T03:33:22.568Z,96599.05
2019-01-14T03:35:51.927Z,96591.12
2019-01-14T03:38:21.295Z,96595.19
2019-01-14T03:40:50.681Z,96597.22
2019-01-14T03:43:20.033Z,96598.84
2019-01-14T03:45:49.439Z,96594.79
2019-01-14T03:48:18.802Z,96586.28
2019-01-14T03:50:48.182Z,96603.83
2019-01-14T03:53:17.545Z,96588.20
2019-01-14T03:55:46.964Z,96593.91
2019-01-14T03:58:16.346Z,96599.69
2019-01-14T04:00:45.696Z,96595.98
2019-01-14T04:03:15.078Z,96604.09
2019-01-14T04:05:44.453Z,96606.38
2019-01-14T04:08:13.841Z,96623.18
2019-01-14T04:10:43.202Z,96634.13
2019-01-14T04:13:12.670Z,96623.87
2019-01-14T04:15:42.022Z,96641.91
2019-01-14T04:18:11.472Z,96654.36
2019-01-14T04:20:40.847Z,96652.60
2019-01-14T04:23:10.201Z,96653.94
2019-01-14T04:25:39.582Z,96655.58
2019-01-14T04:28:08.934Z,96653.39
2019-01-14T04:30:38.320Z,96657.59
2019-01-14T04:33:07.709Z,96657.25
2019-01-14T04:35:37.197Z,96675.22
2019-01-14T04:38:06.582Z,96670.78
2019-01-14T04:40:35.938Z,96678.19
2019-01-14T04:43:05.398Z,96678.98
2019-01-14T04:45:34.756Z,96685.83
2019-01-14T04:48:04.167Z,96687.80
2019-01-14T04:50:33.533Z,96685.91
2019-01-14T04:53:02.915Z,96700.13
2019-01-14T04:55:32.290Z,96694.90
2019-01-14T04:58:01.649Z,96697.58
2019-01-14T05:00:31.034Z,96698.25
2019-01-14T05:03:00.385Z,96710.58
2019-01-14T05:05:29.766Z,96716.34
2019-01-14T05:07:59.121Z,96700.30
2019-01-14T05:10:28.597Z,96707.61
2019-01-14T05:12:57.953Z,96710.75
2019-01-14T05:15:27.307Z,96710.83
2019-01-14T05:17:56.684Z,96708.00
2019-01-14T05:20:27.277Z,96713.03
2019-01-14T05:22:57.305Z,96712.30
2019-01-14T05:25:26.699Z,96727.85
2019-01-14T05:27:56.076Z,96729.48
2019-01-14T05:30:25.455Z,96729.38
2019-01-14T05:32:54.809Z,96742.88
2019-01-14T05:35:24.190Z,96740.80
2019-01-14T05:37:53.538Z,96750.60
2019-01-14T05:40:24.782Z,96753.52
2019-01-14T05:42:54.138Z,96756.66
2019-01-14T05:45:23.490Z,96747.86
2019-01-14T05:47:52.897Z,96758.61
2019-01-14T05:50:22.264Z,96765.84
2019-01-14T05:52:51.655Z,96772.38
2019-01-14T05:55:21.035Z,96776.98
2019-01-14T05:57:50.534Z,96786.45
2019-01-14T06:00:49.959Z,96794.72
2019-01-14T06:03:19.432Z,96795.11
2019-01-14T06:05:48.787Z,96804.65
2019-01-14T06:08:18.290Z,96804.66
2019-01-14T06:10:47.657Z,96812.83
2019-01-14T06:13:17.013Z,96811.39
2019-01-14T06:15:46.424Z,96812.86
2019-01-14T06:18:15.786Z,96819.88
2019-01-14T06:20:45.166Z,96821.02
2019-01-14T06:23:14.525Z,96834.37
2019-01-14T06:25:43.908Z,96839.70
2019-01-14T06:28:13.268Z,96847.48
2019-01-14T06:30:42.673Z,96853.36
2019-01-14T06:33:12.037Z,96858.81
2019-01-14T06:35:41.434Z,96859.64
2019-01-14T06:38:10.845Z,96880.50
2019-01-14T06:40:40.204Z,96878.45
2019-01-14T06:43:09.630Z,96882.01
2019-01-14T06:45:38.990Z,96879.21
2019-01-14T06:48:08.395Z,96884.17
2019-01-14T06:50:37.748Z,96897.31
2019-01-14T06:53:07.095Z,96903.16
2019-01-14T06:55:36.476Z,96903.44
2019-01-14T06:58:06.451Z,96901.27
2019-01-14T07:00:35.953Z,96915.95
2019-01-14T07:03:05.400Z,96928.46
2019-01-14T07:05:34.749Z,96934.23
2019-01-14T07:08:04.232Z,96935.27
2019-01-14T07:10:33.580Z,96934.19
2019-01-14T07:13:02.960Z,96939.56
2019-01-14T07:15:32.311Z,96948.79
2019-01-14T07:18:01.665Z,96947.45
2019-01-14T07:20:31.033Z,96956.52
2019-01-14T07:23:00.408Z,96964.02
2019-01-14T07:25:29.887Z,96973.83
2019-01-14T07:27:59.290Z,96987.33
2019-01-14T07:30:28.729Z,96989.97
2019-01-14T07:32:58.077Z,96986.61
2019-01-14T07:35:27.512Z,96977.84
2019-01-14T07:37:56.889Z,96987.15
2019-01-14T07:40:26.234Z,96991.12
2019-01-14T07:42:55.603Z,96991.55
2019-01-14T07:45:25.075Z,96991.80
2019-01-14T07:47:54.450Z,96998.84
2019-01-14T07:50:23.803Z,97003.82
2019-01-14T07:52:53.153Z,96999.56
2019-01-14T07:55:22.541Z,97004.28
2019-01-14T07:57:52.099Z,97002.16
2019-01-14T08:00:23.604Z,97006.84
2019-01-14T08:02:53.311Z,97006.08
2019-01-14T08:05:22.641Z,97007.84
2019-01-14T08:07:52.261Z,97012.14
2019-01-14T08:10:21.660Z,97011.67
2019-01-14T08:12:51.116Z,97018.23
2019-01-14T08:15:22.267Z,97017.33
2019-01-14T08:17:51.621Z,97020.49
2019-01-14T08:20:21.054Z,97023.38
2019-01-14T08:22:50.680Z,97034.11
2019-01-14T08:25:20.133Z,97036.56
2019-01-14T08:27:49.553Z,97042.53
2019-01-14T08:30:21.044Z,97044.91
2019-01-14T08:32:50.440Z,97046.96
2019-01-14T08:35:20.294Z,97051.14
2019-01-14T08:37:49.827Z,97049.17
2019-01-14T08:40:19.535Z,97051.69
2019-01-14T08:42:48.917Z,97056.70
2019-01-14T08:45:18.404Z,97061.23
2019-01-14T08:47:47.830Z,97056.94
2019-01-14T08:50:19.543Z,97071.34
2019-01-14T08:52:48.892Z,97063.06
2019-01-14T08:55:18.482Z,97067.87
2019-01-14T08:57:54.463Z,97063.16
2019-01-14T09:00:23.253Z,97065.26
2019-01-14T09:02:52.670Z,97066.01
2019-01-14T09:05:22.117Z,97071.84
2019-01-14T09:07:51.465Z,97079.33
2019-01-14T09:10:25.724Z,97074.61
2019-01-14T09:12:55.173Z,97080.04
2019-01-14T09:15:24.552Z,97083.70
2019-01-14T09:17:53.928Z,97080.58
2019-01-14T09:20:24.708Z,97084.91
2019-01-14T09:22:54.076Z,97083.42
2019-01-14T09:25:23.432Z,97082.36
2019-01-14T09:27:52.796Z,97078.73
2019-01-14T09:30:24.104Z,97073.92
2019-01-14T09:32:53.678Z,97080.75
2019-01-14T09:35:23.029Z,97072.23
2019-01-14T09:37:52.418Z,97066.94
2019-01-14T09:40:23.383Z,97082.67
2019-01-14T09:42:52.741Z,97077.69
2019-01-14T09:45:22.176Z,97087.79
2019-01-14T09:47:51.674Z,97085.52
2019-01-14T09:50:21.428Z,97087.38
2019-01-14T09:52:50.779Z,97083.28
2019-01-14T09:55:20.552Z,97090.38
2019-01-14T09:57:49.903Z,97085.92
2019-01-14T10:00:19.281Z,97081.55
2019-01-14T10:02:48.875Z,97082.03
2019-01-14T10:05:19.455Z,97083.42
2019-01-14T10:07:48.899Z,97082.08
2019-01-14T10:10:19.244Z,97071.47
2019-01-14T10:12:48.937Z,97085.59
2019-01-14T10:15:20.597Z,97085.67
2019-01-14T10:18:04.999Z,97087.02
2019-01-14T10:20:34.710Z,97087.89
2019-01-14T10:23:04.768Z,97082.95
2019-01-14T10:25:35.914Z,97096.72
2019-01-14T10:28:05.262Z,97090.40
2019-01-14T10:30:34.610Z,97094.19
2019-01-14T10:33:03.993Z,97109.24
2019-01-14T10:35:33.372Z,97107.76
2019-01-14T10:38:02.789Z,97108.91
2019-01-14T10:40:32.126Z,97115.23
2019-01-14T10:43:01.472Z,97109.86
2019-01-14T10:45:30.935Z,97118.03
2019-01-14T10:48:00.314Z,97107.83
2019-01-14T10:50:29.985Z,97115.20
2019-01-14T10:52:59.391Z,97117.55
2019-01-14T10:55:28.803Z,97118.77
2019-01-14T10:57:58.226Z,97110.78
2019-01-14T11:00:29.452Z,97117.69
2019-01-14T11:03:00.096Z,97119.09
2019-01-14T11:05:31.228Z,97119.52
2019-01-14T11:08:01.177Z,97125.36
2019-01-14T11:10:30.523Z,97129.16
2019-01-14T11:12:59.916Z,97125.47
2019-01-14T11:15:29.266Z,97124.55
2019-01-14T11:17:58.673Z,97120.69
2019-01-14T11:20:30.045Z,97116.36
2019-01-14T11:23:00.371Z,97111.53
2019-01-14T11:25:29.953Z,97107.77
2019-01-14T11:27:59.946Z,97110.13
2019-01-14T11:30:33.331Z,97107.75
2019-01-14T11:33:02.692Z,97103.77
2019-01-14T11:35:32.180Z,97113.83
2019-01-14T11:38:01.529Z,97108.88
2019-01-14T11:40:34.013Z,97109.09
2019-01-14T11:43:03.368Z,97114.78
2019-01-14T11:45:32.717Z,97123.97
2019-01-14T11:48:02.121Z,97126.36
2019-01-14T11:50:31.516Z,97129.83
2019-01-14T11:53:00.901Z,97125.02
2019-01-14T11:55:30.369Z,97132.75
2019-01-14T11:57:59.754Z,97136.66
2019-01-14T12:00:36.243Z,97129.22
2019-01-14T12:03:00.605Z,97138.06
2019-01-14T12:05:30.052Z,97140.86
2019-01-14T12:07:59.419Z,97146.78
2019-01-14T12:10:28.826Z,97141.56
2019-01-14T12:12:58.280Z,97144.01
2019-01-14T12:15:28.693Z,97141.88
2019-01-14T12:17:58.075Z,97142.53
2019-01-14T12:20:27.768Z,97150.23
2019-01-14T12:22:57.248Z,97147.73
2019-01-14T12:25:26.683Z,97132.38
2019-01-14T12:27:56.041Z,97135.30
2019-01-14T12:30:32.476Z,97133.84
2019-01-14T12:33:01.850Z,97137.97
2019-01-14T12:35:31.412Z,97146.66
2019-01-14T12:38:01.031Z,97148.66
2019-01-14T12:40:30.380Z,97151.88
2019-01-14T12:42:59.889Z,97158.25
2019-01-14T12:45:29.390Z,97149.06
2019-01-14T12:47:59.837Z,97162.14
2019-01-14T12:50:32.638Z,97161.91
2019-01-14T12:53:02.074Z,97166.39
2019-01-14T12:55:31.818Z,97187.31
2019-01-14T12:58:01.175Z,97177.43
2019-01-14T13:00:31.135Z,97173.06
2019-01-14T13:03:00.629Z,97169.93
2019-01-14T13:05:31.355Z,97184.97
2019-01-14T13:08:00.720Z,97184.69
2019-01-14T13:10:30.105Z,97177.94
2019-01-14T13:12:59.567Z,97186.67
2019-01-14T13:15:29.388Z,97182.20
2019-01-14T13:17:58.797Z,97202.16
2019-01-14T13:20:28.429Z,97199.92
2019-01-14T13:22:57.822Z,97228.84
2019-01-14T13:25:27.229Z,97243.31
2019-01-14T13:27:56.604Z,97225.52
2019-01-14T13:30:28.014Z,97222.02
2019-01-14T13:32:57.874Z,97218.92
2019-01-14T13:35:27.230Z,97220.05
2019-01-14T13:37:56.628Z,97235.78
2019-01-14T13:40:25.976Z,97252.44
2019-01-14T13:42:55.469Z,97256.52
2019-01-14T13:45:25.058Z,97241.11
2019-01-14T13:47:54.463Z,97267.66
2019-01-14T13:50:25.649Z,97259.56
2019-01-14T13:52:55.015Z,97263.97
2019-01-14T13:55:25.928Z,97258.38
2019-01-14T13:57:59.722Z,97248.31
2019-01-14T14:00:28.064Z,97255.80
2019-01-14T14:02:57.453Z,97255.05
2019-01-14T14:05:26.835Z,97264.13
2019-01-14T14:07:56.235Z,97261.34
2019-01-14T14:10:32.403Z,97253.08
2019-01-14T14:13:01.957Z,97267.67
2019-01-14T14:15:31.445Z,97273.61
2019-01-14T14:18:01.149Z,97271.28
2019-01-14T14:20:30.636Z,97272.31
2019-01-14T14:23:01.590Z,97291.06
2019-01-14T14:25:30.940Z,97287.83
2019-01-14T14:28:00.428Z,97300.14
2019-01-14T14:30:35.912Z,97288.39
2019-01-14T14:33:05.658Z,97299.52
2019-01-14T14:35:35.357Z,97312.46
2019-01-14T14:38:05.787Z,97312.14
2019-01-14T14:40:35.154Z,97333.53
2019-01-14T14:43:04.848Z,97327.97
2019-01-14T14:45:34.254Z,97328.21
2019-01-14T14:48:03.650Z,97351.95
2019-01-14T14:50:33.025Z,97339.89
2019-01-14T14:53:02.403Z,97346.58
2019-01-14T14:55:31.834Z,97346.61
2019-01-14T14:58:01.353Z,97344.23
2019-01-14T15:00:30.700Z,97359.20
2019-01-14T15:03:00.084Z,97357.59
2019-01-14T15:05:29.424Z,97362.63
2019-01-14T15:07:58.830Z,97370.67
2019-01-14T15:10:28.326Z,97379.47
2019-01-14T15:12:57.844Z,97378.50
2019-01-14T15:15:27.655Z,97387.28
2019-01-14T15:17:57.008Z,97392.63
2019-01-14T15:20:26.477Z,97389.98
2019-01-14T15:22:55.883Z,97398.22
2019-01-14T15:25:25.233Z,97403.59
2019-01-14T15:27:54.620Z,97396.88
2019-01-14T15:30:29.155Z,97405.45
2019-01-14T15:32:58.636Z,97402.78
2019-01-14T15:35:28.146Z,97412.63
2019-01-14T15:37:57.509Z,97417.71
2019-01-14T15:40:27.181Z,97420.39
2019-01-14T15:42:56.754Z,97421.98
2019-01-14T15:45:27.123Z,97438.02
2019-01-14T15:47:56.523Z,97433.50
2019-01-14T15:50:25.876Z,97442.56
2019-01-14T15:52:55.371Z,97447.38
2019-01-14T15:55:26.945Z,97435.89
2019-01-14T15:57:56.512Z,97455.11
2019-01-14T16:00:26.234Z,97454.31
2019-01-14T16:02:55.598Z,97443.39
2019-01-14T16:05:25.187Z,97465.53
2019-01-14T16:07:54.561Z,97468.22
2019-01-14T16:10:25.624Z,97463.11
2019-01-14T16:12:55.012Z,97469.55
2019-01-14T16:15:24.658Z,97472.75
2019-01-14T16:17:54.113Z,97478.61
2019-01-14T16:20:25.377Z,97482.35
2019-01-14T16:22:55.017Z,97492.48
2019-01-14T16:25:24.397Z,97491.95
2019-01-14T16:27:53.888Z,97496.51
2019-01-14T16:30:27.447Z,97509.32
2019-01-14T16:32:57.026Z,97514.64
2019-01-14T16:35:26.518Z,97515.97
2019-01-14T16:37:55.874Z,97527.74
2019-01-14T16:40:25.435Z,97524.81
2019-01-14T16:42:54.919Z,97537.88
2019-01-14T16:45:26.208Z,97530.14
2019-01-14T16:47:55.690Z,97544.28
2019-01-14T16:50:25.344Z,97545.08
2019-01-14T16:52:54.719Z,97540.83
2019-01-14T16:55:46.243Z,97545.34
2019-01-14T16:58:15.616Z,97546.95
2019-01-14T17:00:45.113Z,97559.22
2019-01-14T17:03:14.527Z,97568.30
2019-01-14T17:05:43.923Z,97566.98
2019-01-14T17:08:13.409Z,97570.45
2019-01-14T17:10:43.024Z,97590.18
2019-01-14T17:13:12.480Z,97587.52
2019-01-14T17:15:41.932Z,97603.50
2019-01-14T17:18:11.376Z,97597.38
2019-01-14T17:20:40.841Z,97606.70
2019-01-14T17:23:10.235Z,97609.34
2019-01-14T17:25:39.698Z,97604.55
2019-01-14T17:28:10.690Z,97626.97
2019-01-14T17:30:40.262Z,97619.52
2019-01-14T17:33:09.705Z,97631.77
2019-01-14T17:35:39.148Z,97637.90
2019-01-14T17:38:08.615Z,97631.00
2019-01-14T17:40:37.979Z,97648.33
2019-01-14T17:43:07.451Z,97654.47
2019-01-14T17:45:36.918Z,97663.53
2019-01-14T17:48:06.417Z,97661.96
2019-01-14T17:50:36.088Z,97684.59
2019-01-14T17:53:06.261Z,97683.55
2019-01-14T17:55:35.641Z,97691.50
2019-01-14T17:58:05.383Z,97692.09
2019-01-14T18:00:34.888Z,97694.81
2019-01-14T18:03:04.357Z,97695.61
2019-01-14T18:05:33.738Z,97706.50
2019-01-14T18:08:03.128Z,97702.02
2019-01-14T18:10:39.686Z,97708.13
2019-01-14T18:13:03.599Z,97715.89
2019-01-14T18:15:33.075Z,97716.13
2019-01-14T18:18:02.523Z,97720.41
2019-01-14T18:20:31.874Z,97728.91
2019-01-14T18:23:01.249Z,97728.91
2019-01-14T18:25:30.712Z,97727.31
2019-01-14T18:28:00.152Z,97732.88
2019-01-14T18:30:29.525Z,97738.41
2019-01-14T18:32:58.987Z,97735.78
2019-01-14T18:35:28.371Z,97747.75
2019-01-14T18:37:57.819Z,97742.41
2019-01-14T18:40:33.549Z,97750.42
2019-01-14T18:42:58.411Z,97741.88
2019-01-14T18:45:27.864Z,97757.57
2019-01-14T18:47:57.358Z,97742.18
2019-01-14T18:50:26.915Z,97748.55
2019-01-14T18:52:56.377Z,97759.97
2019-01-14T18:55:25.847Z,97772.77
2019-01-14T18:57:55.277Z,97776.42
2019-01-14T19:00:25.015Z,97774.48
2019-01-14T19:02:54.650Z,97767.55
2019-01-14T19:05:24.214Z,97789.15
2019-01-14T19:07:53.677Z,97787.81
2019-01-14T19:10:23.141Z,97777.63
2019-01-14T19:12:52.594Z,97789.96
2019-01-14T19:15:22.298Z,97792.56
2019-01-14T19:17:53.155Z,97812.23
2019-01-14T19:20:27.517Z,97823.97
2019-01-14T19:22:57.280Z,97826.73
2019-01-14T19:25:26.744Z,97827.44
2019-01-14T19:27:56.415Z,97846.02
2019-01-14T19:30:26.237Z,97842.27
2019-01-14T19:32:55.793Z,97857.08
2019-01-14T19:35:25.899Z,97852.53
2019-01-14T19:37:55.441Z,97877.41
2019-01-14T19:40:25.191Z,97873.78
2019-01-14T19:42:54.704Z,97880.96
2019-01-14T19:45:24.919Z,97873.67
2019-01-14T19:47:55.049Z,97868.19
2019-01-14T19:50:25.444Z,97871.84
2019-01-14T19:52:56.747Z,97887.18
2019-01-14T19:55:26.553Z,97874.59
2019-01-14T19:57:56.449Z,97876.19
2019-01-14T20:00:30.245Z,97897.42
2019-01-14T20:03:00.597Z,97895.61
2019-01-14T20:05:30.130Z,97886.03
2019-01-14T20:08:00.182Z,97900.24
2019-01-14T20:10:29.652Z,97913.40
2019-01-14T20:12:59.105Z,97920.84
2019-01-14T20:15:28.567Z,97923.34
2019-01-14T20:17:58.382Z,97936.03
2019-01-14T20:20:27.799Z,97936.81
2019-01-14T20:22:58.496Z,97935.01
2019-01-14T20:25:28.010Z,97943.98
2019-01-14T20:27:57.481Z,97935.83
2019-01-14T20:30:26.917Z,97943.20
2019-01-14T20:32:56.356Z,97958.05
2019-01-14T20:35:25.821Z,97956.16
2019-01-14T20:37:55.257Z,97965.00
2019-01-14T20:40:24.720Z,97970.75
2019-01-14T20:42:54.186Z,97963.80
2019-01-14T20:45:23.673Z,97964.63
2019-01-14T20:47:53.104Z,97968.47
2019-01-14T20:50:22.894Z,97972.83
2019-01-14T20:52:52.446Z,97976.30
2019-01-14T20:55:22.457Z,97967.97
2019-01-14T20:57:52.339Z,97972.91
2019-01-14T21:00:24.698Z,97972.53
2019-01-14T21:02:54.737Z,97974.86
2019-01-14T21:05:25.335Z,97974.45
2019-01-14T21:07:55.021Z,97962.66
2019-01-14T21:10:24.787Z,97957.79
2019-01-14T21:12:54.517Z,97963.16
2019-01-14T21:15:23.966Z,97966.96
2019-01-14T21:17:53.573Z,97966.18
2019-01-14T21:20:24.672Z,97975.22
2019-01-14T21:22:54.839Z,97972.01
2019-01-14T21:25:24.391Z,97974.06
2019-01-14T21:27:53.921Z,97976.91
2019-01-14T21:30:26.461Z,97982.51
2019-01-14T21:32:56.000Z,97995.41
2019-01-14T21:35:25.475Z,97985.66
2019-01-14T21:37:56.642Z,97988.84
2019-01-14T21:40:26.136Z,97993.91
2019-01-14T21:42:55.597Z,97993.36
2019-01-14T21:45:25.166Z,97991.42
2019-01-14T21:47:54.650Z,97990.94
2019-01-14T21:50:24.202Z,97992.88
2019-01-14T21:52:53.804Z,97987.69
2019-01-14T21:55:24.900Z,97994.49
2019-01-14T21:57:54.372Z,97991.68
2019-01-14T22:00:24.914Z,97999.39
2019-01-14T22:02:54.366Z,98004.95
2019-01-14T22:05:23.872Z,98001.98
2019-01-14T22:07:53.329Z,98012.78
2019-01-14T22:10:24.964Z,98006.75
2019-01-14T22:12:54.420Z,97996.65
2019-01-14T22:15:23.882Z,97998.20
2019-01-14T22:17:53.363Z,97992.97
2019-01-14T22:20:27.381Z,97989.39
2019-01-14T22:22:56.891Z,98002.79
2019-01-14T22:25:26.345Z,98001.78
2019-01-14T22:27:55.806Z,98007.55
2019-01-14T22:30:30.700Z,98009.41
2019-01-14T22:33:00.153Z,98009.22
2019-01-14T22:35:29.760Z,98010.13
2019-01-14T22:37:59.229Z,98013.06
2019-01-14T22:43:16.013Z,98010.40
2019-01-14T22:45:45.504Z,98011.18
2019-01-14T22:48:14.944Z,98009.84
2019-01-14T22:50:44.386Z,98012.56
2019-01-14T22:53:13.853Z,98028.91
2019-01-14T22:55:43.291Z,98010.70
2019-01-14T22:58:12.750Z,98014.16
2019-01-14T23:01:14.618Z,98010.15
2019-01-14T23:03:48.990Z,98021.83
2019-01-14T23:06:18.464Z,98029.46
2019-01-14T23:08:47.929Z,98027.49
2019-01-14T23:11:17.378Z,98034.15
2019-01-14T23:13:46.842Z,98036.67
2019-01-14T23:16:16.282Z,98037.09
2019-01-14T23:18:45.738Z,98033.73
2019-01-14T23:21:15.178Z,98040.64
2019-01-14T23:23:44.638Z,98039.89
2019-01-14T23:26:14.072Z,98038.56
2019-01-14T23:28:43.737Z,98037.70
2019-01-14T23:31:13.164Z,98041.58
2019-01-14T23:33:42.612Z,98048.77
2019-01-14T23:36:12.072Z,98053.90
2019-01-14T23:38:41.509Z,98052.15
2019-01-14T23:41:10.970Z,98058.75
2019-01-14T23:43:40.404Z,98063.83
2019-01-14T23:46:09.917Z,98064.08
2019-01-14T23:48:39.352Z,98069.68
2019-01-14T23:51:08.784Z,98071.91
2019-01-14T23:53:38.253Z,98067.33
2019-01-14T23:56:07.689Z,98066.86
2019-01-14T23:58:37.147Z,98073.17
